createdAt,value
2022-08-04T00:00:25.611Z,0.00
2022-08-04T00:01:25.622Z,0.00
2022-08-04T00:02:25.609Z,0.00
2022-08-04T00:03:25.572Z,0.00
2022-08-04T00:04:25.549Z,0.00
2022-08-04T00:05:25.554Z,0.00
2022-08-04T00:06:25.524Z,0.00
2022-08-04T00:07:42.477Z,0.00
2022-08-04T00:08:25.506Z,0.00
2022-08-04T00:09:25.491Z,0.00
2022-08-04T00:10:25.501Z,0.00
2022-08-04T00:11:25.489Z,0.00
2022-08-04T00:12:29.393Z,0.00
2022-08-04T00:13:25.455Z,0.00
2022-08-04T00:14:25.462Z,0.00
2022-08-04T00:15:25.441Z,0.00
2022-08-04T00:16:25.425Z,0.00
2022-08-04T00:17:25.407Z,0.00
2022-08-04T00:18:25.420Z,0.00
2022-08-04T00:19:25.386Z,0.00
2022-08-04T00:20:25.377Z,0.00
2022-08-04T00:21:25.376Z,0.00
2022-08-04T00:22:25.372Z,0.00
2022-08-04T00:23:25.346Z,0.00
2022-08-04T00:24:25.334Z,0.00
2022-08-04T00:25:25.322Z,0.00
2022-08-04T00:26:26.350Z,0.00
2022-08-04T00:27:25.313Z,0.00
2022-08-04T00:28:25.305Z,0.00
2022-08-04T00:29:25.278Z,0.00
2022-08-04T00:30:25.278Z,0.00
2022-08-04T00:31:33.286Z,0.00
2022-08-04T00:32:33.961Z,0.00
2022-08-04T00:33:25.237Z,0.00
2022-08-04T00:34:25.230Z,0.00
2022-08-04T00:35:25.244Z,0.00
2022-08-04T00:36:25.258Z,0.00
2022-08-04T00:37:25.188Z,0.00
2022-08-04T00:38:25.890Z,0.00
2022-08-04T00:39:25.342Z,0.00
2022-08-04T00:40:25.182Z,0.00
2022-08-04T00:41:25.159Z,0.00
2022-08-04T00:42:25.177Z,0.00
2022-08-04T00:43:25.129Z,0.00
2022-08-04T00:44:25.121Z,0.00
2022-08-04T00:45:25.101Z,0.00
2022-08-04T00:47:34.129Z,0.00
2022-08-04T00:48:35.043Z,0.00
2022-08-04T00:49:35.041Z,0.00
2022-08-04T00:50:35.031Z,0.00
2022-08-04T00:51:35.022Z,0.00
2022-08-04T00:52:34.992Z,0.00
2022-08-04T00:53:34.999Z,0.00
2022-08-04T00:54:34.994Z,0.00
2022-08-04T00:55:34.957Z,0.00
2022-08-04T00:56:34.945Z,0.00
2022-08-04T00:57:35.049Z,0.00
2022-08-04T00:58:34.926Z,0.00
2022-08-04T00:59:34.930Z,0.00
2022-08-04T01:00:34.900Z,0.00
2022-08-04T01:01:34.947Z,0.00
2022-08-04T01:02:34.880Z,0.00
2022-08-04T01:03:34.877Z,0.00
2022-08-04T01:04:34.890Z,0.00
2022-08-04T01:05:38.078Z,0.00
2022-08-04T01:06:34.836Z,0.00
2022-08-04T01:07:34.833Z,0.00
2022-08-04T01:08:34.829Z,0.00
2022-08-04T01:09:34.839Z,0.00
2022-08-04T01:10:34.810Z,0.00
2022-08-04T01:11:56.605Z,0.00
2022-08-04T01:12:34.768Z,0.00
2022-08-04T01:13:34.775Z,0.00
2022-08-04T01:14:34.745Z,0.00
2022-08-04T01:15:57.186Z,0.00
2022-08-04T01:16:34.740Z,0.00
2022-08-04T01:17:34.719Z,0.00
2022-08-04T01:18:34.734Z,0.00
2022-08-04T01:19:34.731Z,0.00
2022-08-04T01:20:34.715Z,0.00
2022-08-04T01:21:34.674Z,0.00
2022-08-04T01:22:34.675Z,0.00
2022-08-04T01:23:34.666Z,0.00
2022-08-04T01:24:34.643Z,0.00
2022-08-04T01:25:35.742Z,0.00
2022-08-04T01:26:43.972Z,0.00
2022-08-04T01:27:34.833Z,0.00
2022-08-04T01:28:34.612Z,0.00
2022-08-04T01:29:46.703Z,0.00
2022-08-04T01:30:34.572Z,0.00
2022-08-04T01:31:34.569Z,0.00
2022-08-04T01:32:34.564Z,0.00
2022-08-04T01:34:03.577Z,0.00
2022-08-04T01:34:34.535Z,0.00
2022-08-04T01:35:47.536Z,0.00
2022-08-04T01:36:34.627Z,0.00
2022-08-04T01:37:34.503Z,0.00
2022-08-04T01:38:34.509Z,0.00
2022-08-04T01:39:34.589Z,0.00
2022-08-04T01:40:34.470Z,0.00
2022-08-04T01:41:34.459Z,0.00
2022-08-04T01:42:34.464Z,0.00
2022-08-04T01:43:34.434Z,0.00
2022-08-04T01:44:34.444Z,0.00
2022-08-04T01:45:34.425Z,0.00
2022-08-04T01:46:34.390Z,0.00
2022-08-04T01:47:34.382Z,0.00
2022-08-04T01:48:34.368Z,0.00
2022-08-04T01:49:40.487Z,0.00
2022-08-04T01:50:34.369Z,0.00
2022-08-04T01:51:34.345Z,0.00
2022-08-04T01:52:34.331Z,0.00
2022-08-04T01:53:34.317Z,0.00
2022-08-04T01:54:34.317Z,0.00
2022-08-04T01:55:51.864Z,0.00
2022-08-04T01:56:34.302Z,0.00
2022-08-04T01:57:45.967Z,0.00
2022-08-04T01:58:34.257Z,0.00
2022-08-04T01:59:34.251Z,0.00
2022-08-04T02:00:34.259Z,0.00
2022-08-04T02:01:34.366Z,0.00
2022-08-04T02:02:34.328Z,0.00
2022-08-04T02:04:21.226Z,0.00
2022-08-04T02:04:34.190Z,0.00
2022-08-04T02:06:03.124Z,0.00
2022-08-04T02:06:34.199Z,0.00
2022-08-04T02:07:34.187Z,0.00
2022-08-04T02:08:34.146Z,0.00
2022-08-04T02:09:34.134Z,0.00
2022-08-04T02:10:34.132Z,0.00
2022-08-04T02:11:34.117Z,0.00
2022-08-04T02:12:34.113Z,0.00
2022-08-04T02:13:34.096Z,0.00
2022-08-04T02:14:34.083Z,0.00
2022-08-04T02:15:34.074Z,0.00
2022-08-04T02:16:34.070Z,0.00
2022-08-04T02:17:34.043Z,0.00
2022-08-04T02:18:34.038Z,0.00
2022-08-04T02:19:34.026Z,0.00
2022-08-04T02:20:34.029Z,0.00
2022-08-04T02:21:42.356Z,0.00
2022-08-04T02:22:33.997Z,0.00
2022-08-04T02:23:33.981Z,0.00
2022-08-04T02:24:33.974Z,0.00
2022-08-04T02:25:34.097Z,0.00
2022-08-04T02:26:33.951Z,0.00
2022-08-04T02:27:59.398Z,0.00
2022-08-04T02:28:33.944Z,0.00
2022-08-04T02:29:33.931Z,0.00
2022-08-04T02:30:33.902Z,0.00
2022-08-04T02:31:33.893Z,0.00
2022-08-04T02:32:33.885Z,0.00
2022-08-04T02:33:33.871Z,0.00
2022-08-04T02:34:33.875Z,0.00
2022-08-04T02:35:33.865Z,0.00
2022-08-04T02:36:33.838Z,0.00
2022-08-04T02:37:33.823Z,0.00
2022-08-04T02:38:33.811Z,0.00
2022-08-04T02:39:41.411Z,0.00
2022-08-04T02:40:33.797Z,0.00
2022-08-04T02:41:33.783Z,0.00
2022-08-04T02:42:33.772Z,0.00
2022-08-04T02:43:50.224Z,0.00
2022-08-04T02:44:33.781Z,0.00
2022-08-04T02:45:33.738Z,0.00
2022-08-04T02:46:33.730Z,0.00
2022-08-04T02:48:42.680Z,0.00
2022-08-04T02:49:43.673Z,0.00
2022-08-04T02:50:43.650Z,0.00
2022-08-04T02:51:43.640Z,0.00
2022-08-04T02:52:43.651Z,0.00
2022-08-04T02:53:43.619Z,0.00
2022-08-04T02:54:43.616Z,0.00
2022-08-04T02:55:50.966Z,0.00
2022-08-04T02:56:43.689Z,0.00
2022-08-04T02:57:43.576Z,0.00
2022-08-04T02:58:43.564Z,0.00
2022-08-04T02:59:43.554Z,0.00
2022-08-04T03:00:43.614Z,0.00
2022-08-04T03:01:56.856Z,0.00
2022-08-04T03:02:43.526Z,0.00
2022-08-04T03:03:43.524Z,0.00
2022-08-04T03:04:43.501Z,0.00
2022-08-04T03:05:51.868Z,0.00
2022-08-04T03:06:44.152Z,0.00
2022-08-04T03:07:43.490Z,0.00
2022-08-04T03:08:43.471Z,0.00
2022-08-04T03:09:43.443Z,0.00
2022-08-04T03:10:43.435Z,0.00
2022-08-04T03:11:43.431Z,0.00
2022-08-04T03:12:43.414Z,0.00
2022-08-04T03:13:43.413Z,0.00
2022-08-04T03:14:43.390Z,0.00
2022-08-04T03:15:43.380Z,4.00
2022-08-04T03:16:43.365Z,4.00
2022-08-04T03:17:52.922Z,0.00
2022-08-04T03:18:43.357Z,0.00
2022-08-04T03:19:43.328Z,4.00
2022-08-04T03:20:43.338Z,4.00
2022-08-04T03:21:43.315Z,0.00
2022-08-04T03:23:06.291Z,4.00
2022-08-04T03:23:43.285Z,4.00
2022-08-04T03:24:43.282Z,4.00
2022-08-04T03:25:56.662Z,8.00
2022-08-04T03:26:43.256Z,8.00
2022-08-04T03:27:43.256Z,8.00
2022-08-04T03:28:43.234Z,8.00
2022-08-04T03:29:43.244Z,12.00
2022-08-04T03:30:43.225Z,16.00
2022-08-04T03:31:43.201Z,16.00
2022-08-04T03:32:43.186Z,16.00
2022-08-04T03:33:43.184Z,20.00
2022-08-04T03:34:43.182Z,20.00
2022-08-04T03:35:43.155Z,28.00
2022-08-04T03:36:43.148Z,32.00
2022-08-04T03:37:43.153Z,36.00
2022-08-04T03:38:43.124Z,40.00
2022-08-04T03:39:43.165Z,44.00
2022-08-04T03:40:43.103Z,52.00
2022-08-04T03:41:54.857Z,60.00
2022-08-04T03:42:43.094Z,64.00
2022-08-04T03:43:57.154Z,72.00
2022-08-04T03:44:43.056Z,80.00
2022-08-04T03:45:43.047Z,92.00
2022-08-04T03:46:43.038Z,96.00
2022-08-04T03:47:44.567Z,108.00
2022-08-04T03:48:43.044Z,116.00
2022-08-04T03:49:43.019Z,124.00
2022-08-04T03:50:43.001Z,136.00
2022-08-04T03:51:42.983Z,148.00
2022-08-04T03:52:42.970Z,156.00
2022-08-04T03:53:42.972Z,172.00
2022-08-04T03:54:42.965Z,184.00
2022-08-04T03:55:42.962Z,200.00
2022-08-04T03:56:42.923Z,212.00
2022-08-04T03:57:42.916Z,228.00
2022-08-04T03:58:42.905Z,244.00
2022-08-04T03:59:48.917Z,264.00
2022-08-04T04:00:42.892Z,280.00
2022-08-04T04:02:02.362Z,296.00
2022-08-04T04:02:42.953Z,316.00
2022-08-04T04:03:42.848Z,336.00
2022-08-04T04:04:42.837Z,356.00
2022-08-04T04:06:00.390Z,376.00
2022-08-04T04:06:44.686Z,396.00
2022-08-04T04:07:47.426Z,420.00
2022-08-04T04:08:43.284Z,444.00
2022-08-04T04:09:58.055Z,472.00
2022-08-04T04:10:42.775Z,504.00
2022-08-04T04:11:57.403Z,528.00
2022-08-04T04:12:42.753Z,564.00
2022-08-04T04:13:42.745Z,596.00
2022-08-04T04:14:42.775Z,636.00
2022-08-04T04:15:44.153Z,668.00
2022-08-04T04:16:42.707Z,696.00
2022-08-04T04:17:42.730Z,724.00
2022-08-04T04:18:42.707Z,756.00
2022-08-04T04:19:42.680Z,792.00
2022-08-04T04:20:42.668Z,828.00
2022-08-04T04:21:42.664Z,868.00
2022-08-04T04:22:42.640Z,908.00
2022-08-04T04:23:42.630Z,944.00
2022-08-04T04:24:42.618Z,984.00
2022-08-04T04:25:42.602Z,1020.00
2022-08-04T04:26:42.615Z,1064.00
2022-08-04T04:27:42.581Z,1108.00
2022-08-04T04:28:45.167Z,1160.00
2022-08-04T04:29:42.564Z,1200.00
2022-08-04T04:30:42.552Z,1248.00
2022-08-04T04:31:42.559Z,1300.00
2022-08-04T04:32:42.531Z,1356.00
2022-08-04T04:33:42.542Z,1412.00
2022-08-04T04:34:46.112Z,1476.00
2022-08-04T04:35:43.179Z,1544.00
2022-08-04T04:36:42.486Z,1624.00
2022-08-04T04:37:48.892Z,1712.00
2022-08-04T04:38:42.474Z,1796.00
2022-08-04T04:39:42.493Z,1872.00
2022-08-04T04:40:42.457Z,1956.00
2022-08-04T04:41:42.443Z,2032.00
2022-08-04T04:42:42.421Z,2108.00
2022-08-04T04:43:51.580Z,2180.00
2022-08-04T04:44:42.399Z,2248.00
2022-08-04T04:45:42.401Z,2308.00
2022-08-04T04:46:42.371Z,2352.00
2022-08-04T04:47:43.196Z,2392.00
2022-08-04T04:49:51.317Z,2476.00
2022-08-04T04:50:52.319Z,2508.00
2022-08-04T04:51:52.294Z,2524.00
2022-08-04T04:52:52.299Z,2544.00
2022-08-04T04:54:00.519Z,2564.00
2022-08-04T04:54:52.280Z,2592.00
2022-08-04T04:55:52.253Z,2612.00
2022-08-04T04:56:52.244Z,2636.00
2022-08-04T04:57:54.596Z,2672.00
2022-08-04T04:58:52.243Z,2720.00
2022-08-04T04:59:52.223Z,2776.00
2022-08-04T05:00:52.199Z,2828.00
2022-08-04T05:01:52.186Z,2884.00
2022-08-04T05:02:52.182Z,2920.00
2022-08-04T05:03:52.159Z,2940.00
2022-08-04T05:04:52.152Z,2960.00
2022-08-04T05:05:52.137Z,2988.00
2022-08-04T05:06:54.529Z,2996.00
2022-08-04T05:07:52.136Z,3024.00
2022-08-04T05:08:54.376Z,3064.00
2022-08-04T05:09:52.096Z,3136.00
2022-08-04T05:10:52.084Z,3184.00
2022-08-04T05:11:52.075Z,3196.00
2022-08-04T05:14:32.648Z,3188.00
2022-08-04T05:14:36.655Z,3228.00
2022-08-04T05:14:52.049Z,3252.00
2022-08-04T05:15:52.029Z,3288.00
2022-08-04T05:16:52.017Z,3320.00
2022-08-04T05:17:52.972Z,3384.00
2022-08-04T05:18:51.995Z,3464.00
2022-08-04T05:19:52.002Z,3552.00
2022-08-04T05:20:51.971Z,3576.00
2022-08-04T05:21:51.976Z,3612.00
2022-08-04T05:22:51.953Z,3656.00
2022-08-04T05:23:51.950Z,3708.00
2022-08-04T05:24:51.930Z,3536.00
2022-08-04T05:25:58.446Z,3500.00
2022-08-04T05:26:51.923Z,3448.00
2022-08-04T05:27:51.898Z,3684.00
2022-08-04T05:28:51.912Z,3572.00
2022-08-04T05:29:51.871Z,3236.00
2022-08-04T05:30:51.868Z,3200.00
2022-08-04T05:31:51.864Z,3260.00
2022-08-04T05:32:51.836Z,3188.00
2022-08-04T05:33:51.852Z,3204.00
2022-08-04T05:34:51.818Z,3312.00
2022-08-04T05:36:17.056Z,3400.00
2022-08-04T05:36:51.796Z,3432.00
2022-08-04T05:38:01.764Z,3748.00
2022-08-04T05:38:51.869Z,4256.00
2022-08-04T05:39:51.771Z,3620.00
2022-08-04T05:40:51.750Z,3832.00
2022-08-04T05:41:55.315Z,3308.00
2022-08-04T05:42:51.730Z,3624.00
2022-08-04T05:43:51.730Z,3436.00
2022-08-04T05:44:51.711Z,3352.00
2022-08-04T05:45:51.698Z,3448.00
2022-08-04T05:46:53.736Z,3736.00
2022-08-04T05:47:51.685Z,4088.00
2022-08-04T05:48:51.678Z,4272.00
2022-08-04T05:50:01.364Z,4268.00
2022-08-04T05:50:51.648Z,4676.00
2022-08-04T05:51:51.632Z,5860.00
2022-08-04T05:52:51.621Z,6672.00
2022-08-04T05:53:51.627Z,6632.00
2022-08-04T05:54:51.686Z,6696.00
2022-08-04T05:55:58.899Z,6636.00
2022-08-04T05:56:51.585Z,6804.00
2022-08-04T05:57:55.573Z,7128.00
2022-08-04T05:58:51.569Z,7160.00
2022-08-04T05:59:51.965Z,6924.00
2022-08-04T06:00:52.255Z,7016.00
2022-08-04T06:03:00.061Z,7096.00
2022-08-04T06:04:01.008Z,7212.00
2022-08-04T06:05:00.952Z,7268.00
2022-08-04T06:06:00.953Z,7196.00
2022-08-04T06:07:00.930Z,8076.00
2022-08-04T06:08:12.604Z,8596.00
2022-08-04T06:09:02.052Z,9580.00
2022-08-04T06:10:00.902Z,7352.00
2022-08-04T06:11:00.881Z,8524.00
2022-08-04T06:12:03.881Z,7520.00
2022-08-04T06:13:00.873Z,7240.00
2022-08-04T06:14:00.867Z,7300.00
2022-08-04T06:15:00.840Z,6436.00
2022-08-04T06:16:01.360Z,8324.00
2022-08-04T06:17:00.818Z,7012.00
2022-08-04T06:18:33.856Z,6752.00
2022-08-04T06:20:01.047Z,6696.00
2022-08-04T06:20:20.150Z,5440.00
2022-08-04T06:21:00.771Z,5332.00
2022-08-04T06:22:00.766Z,5244.00
2022-08-04T06:23:00.749Z,5152.00
2022-08-04T06:24:04.250Z,5456.00
2022-08-04T06:25:00.749Z,6028.00
2022-08-04T06:26:00.720Z,4924.00
2022-08-04T06:27:00.750Z,4732.00
2022-08-04T06:28:00.696Z,4692.00
2022-08-04T06:29:00.721Z,4768.00
2022-08-04T06:30:00.714Z,4844.00
2022-08-04T06:31:01.460Z,5124.00
2022-08-04T06:32:31.730Z,5432.00
2022-08-04T06:33:03.382Z,5888.00
2022-08-04T06:34:00.632Z,5940.00
2022-08-04T06:35:00.630Z,6856.00
2022-08-04T06:36:00.625Z,6808.00
2022-08-04T06:37:00.611Z,7352.00
2022-08-04T06:38:01.480Z,8184.00
2022-08-04T06:39:00.677Z,8308.00
2022-08-04T06:40:00.592Z,8668.00
2022-08-04T06:41:00.570Z,8968.00
2022-08-04T06:42:19.313Z,9128.00
2022-08-04T06:43:00.553Z,9308.00
2022-08-04T06:44:01.465Z,8312.00
2022-08-04T06:45:00.525Z,8836.00
2022-08-04T06:46:00.517Z,8860.00
2022-08-04T06:47:00.497Z,8564.00
2022-08-04T06:48:00.491Z,9248.00
2022-08-04T06:49:00.479Z,9128.00
2022-08-04T06:51:25.532Z,9020.00
2022-08-04T06:51:31.389Z,9140.00
2022-08-04T06:52:00.451Z,9104.00
2022-08-04T06:53:00.425Z,9420.00
2022-08-04T06:54:00.417Z,9456.00
2022-08-04T06:55:00.405Z,9576.00
2022-08-04T06:56:00.545Z,9604.00
2022-08-04T06:57:00.377Z,9004.00
2022-08-04T06:58:03.111Z,8428.00
2022-08-04T06:59:00.370Z,8576.00
2022-08-04T07:00:00.350Z,8232.00
2022-08-04T07:01:00.357Z,8316.00
2022-08-04T07:02:00.441Z,8168.00
2022-08-04T07:05:52.874Z,10464.00
2022-08-04T07:06:53.863Z,10288.00
2022-08-04T07:07:57.419Z,9516.00
2022-08-04T07:08:53.846Z,9224.00
2022-08-04T07:09:53.901Z,9132.00
2022-08-04T07:12:02.248Z,10504.00
2022-08-04T07:13:03.261Z,11136.00
2022-08-04T07:14:03.255Z,11308.00
2022-08-04T07:15:03.211Z,11396.00
2022-08-04T07:16:03.213Z,11400.00
2022-08-04T07:17:03.193Z,11508.00
2022-08-04T07:18:03.177Z,11636.00
2022-08-04T07:19:10.590Z,11768.00
2022-08-04T07:20:03.161Z,11840.00
2022-08-04T07:21:03.149Z,11868.00
2022-08-04T07:22:24.329Z,11840.00
2022-08-04T07:23:03.149Z,11624.00
2022-08-04T07:24:03.113Z,11444.00
2022-08-04T07:25:03.102Z,11236.00
2022-08-04T07:26:12.960Z,10832.00
2022-08-04T07:27:03.089Z,11840.00
2022-08-04T07:28:03.075Z,11924.00
2022-08-04T07:29:03.093Z,12032.00
2022-08-04T07:30:03.050Z,12084.00
2022-08-04T07:31:03.049Z,12120.00
2022-08-04T07:32:03.063Z,11956.00
2022-08-04T07:33:03.024Z,11844.00
2022-08-04T07:34:21.165Z,11652.00
2022-08-04T07:35:03.000Z,12020.00
2022-08-04T07:36:05.661Z,12124.00
2022-08-04T07:37:02.974Z,12152.00
2022-08-04T07:38:02.986Z,12176.00
2022-08-04T07:39:03.070Z,12220.00
2022-08-04T07:40:03.027Z,12304.00
2022-08-04T07:41:03.097Z,12400.00
2022-08-04T07:42:02.928Z,12464.00
2022-08-04T07:43:02.935Z,12496.00
2022-08-04T07:44:02.918Z,12536.00
2022-08-04T07:45:02.890Z,12148.00
2022-08-04T07:46:02.882Z,11872.00
2022-08-04T07:47:02.904Z,11960.00
2022-08-04T07:48:05.108Z,12308.00
2022-08-04T07:49:02.865Z,12764.00
2022-08-04T07:50:02.864Z,12968.00
2022-08-04T07:51:02.832Z,12996.00
2022-08-04T07:52:02.830Z,13028.00
2022-08-04T07:53:53.935Z,13084.00
2022-08-04T07:54:02.825Z,13116.00
2022-08-04T07:55:02.790Z,13200.00
2022-08-04T07:56:02.791Z,13272.00
2022-08-04T07:57:02.781Z,13356.00
2022-08-04T07:58:03.245Z,13400.00
2022-08-04T07:59:02.750Z,13504.00
2022-08-04T08:00:02.730Z,13612.00
2022-08-04T08:01:02.749Z,13716.00
2022-08-04T08:02:02.719Z,13832.00
2022-08-04T08:03:02.748Z,13904.00
2022-08-04T08:04:02.803Z,13976.00
2022-08-04T08:05:02.675Z,14008.00
2022-08-04T08:06:17.248Z,14064.00
2022-08-04T08:07:02.675Z,14172.00
2022-08-04T08:08:02.655Z,14348.00
2022-08-04T08:09:13.526Z,14320.00
2022-08-04T08:10:02.615Z,14400.00
2022-08-04T08:11:02.604Z,14484.00
2022-08-04T08:12:36.223Z,14552.00
2022-08-04T08:13:02.590Z,14648.00
2022-08-04T08:14:02.589Z,14848.00
2022-08-04T08:15:02.562Z,15024.00
2022-08-04T08:16:02.555Z,15216.00
2022-08-04T08:17:02.960Z,15396.00
2022-08-04T08:18:02.548Z,15632.00
2022-08-04T08:19:02.523Z,15600.00
2022-08-04T08:20:02.523Z,15736.00
2022-08-04T08:21:02.528Z,15512.00
2022-08-04T08:22:02.547Z,14220.00
2022-08-04T08:23:02.484Z,15376.00
2022-08-04T08:24:02.500Z,15192.00
2022-08-04T08:25:02.468Z,13460.00
2022-08-04T08:26:02.450Z,13656.00
2022-08-04T08:27:02.446Z,13076.00
2022-08-04T08:28:02.440Z,13040.00
2022-08-04T08:29:02.422Z,14480.00
2022-08-04T08:30:02.416Z,14916.00
2022-08-04T08:31:02.411Z,15284.00
2022-08-04T08:32:07.769Z,16544.00
2022-08-04T08:33:02.377Z,17152.00
2022-08-04T08:34:02.370Z,16960.00
2022-08-04T08:35:02.381Z,14432.00
2022-08-04T08:36:02.358Z,14816.00
2022-08-04T08:37:02.335Z,13472.00
2022-08-04T08:38:02.341Z,15212.00
2022-08-04T08:39:02.428Z,16704.00
2022-08-04T08:40:02.302Z,17664.00
2022-08-04T08:41:02.285Z,17824.00
2022-08-04T08:42:02.292Z,16928.00
2022-08-04T08:43:59.911Z,15436.00
2022-08-04T08:44:06.558Z,16448.00
2022-08-04T08:45:02.250Z,18304.00
2022-08-04T08:46:02.242Z,18784.00
2022-08-04T08:47:02.246Z,18912.00
2022-08-04T08:48:05.816Z,18752.00
2022-08-04T08:49:02.201Z,18336.00
2022-08-04T08:50:04.406Z,17952.00
2022-08-04T08:51:02.198Z,18240.00
2022-08-04T08:52:02.177Z,18976.00
2022-08-04T08:53:03.163Z,17856.00
2022-08-04T08:54:02.151Z,15552.00
2022-08-04T08:55:02.174Z,15908.00
2022-08-04T08:56:02.129Z,16608.00
2022-08-04T08:57:02.119Z,17344.00
2022-08-04T08:58:02.114Z,17920.00
2022-08-04T08:59:02.123Z,17440.00
2022-08-04T09:00:02.081Z,18560.00
2022-08-04T09:01:02.172Z,18464.00
2022-08-04T09:02:02.223Z,18528.00
2022-08-04T09:03:04.078Z,18560.00
2022-08-04T09:04:02.056Z,18624.00
2022-08-04T09:05:02.047Z,18624.00
2022-08-04T09:06:02.023Z,18528.00
2022-08-04T09:07:02.024Z,18528.00
2022-08-04T09:08:02.003Z,18560.00
2022-08-04T09:09:01.992Z,18688.00
2022-08-04T09:10:01.991Z,18624.00
2022-08-04T09:11:01.966Z,18528.00
2022-08-04T09:13:10.930Z,18592.00
2022-08-04T09:14:11.909Z,16352.00
2022-08-04T09:15:11.889Z,16832.00
2022-08-04T09:16:11.873Z,17312.00
2022-08-04T09:17:11.867Z,17888.00
2022-08-04T09:18:11.875Z,18368.00
2022-08-04T09:19:17.567Z,18688.00
2022-08-04T09:20:11.847Z,18464.00
2022-08-04T09:21:11.827Z,17120.00
2022-08-04T09:22:12.847Z,17120.00
2022-08-04T09:23:11.827Z,18272.00
2022-08-04T09:24:36.767Z,18432.00
2022-08-04T09:25:11.815Z,17248.00
2022-08-04T09:26:11.799Z,17568.00
2022-08-04T09:27:11.769Z,17408.00
2022-08-04T09:28:11.767Z,17664.00
2022-08-04T09:29:11.803Z,18144.00
2022-08-04T09:30:11.780Z,17920.00
2022-08-04T09:31:11.731Z,17952.00
2022-08-04T09:32:11.718Z,17984.00
2022-08-04T09:33:11.737Z,17952.00
2022-08-04T09:34:11.717Z,18048.00
2022-08-04T09:35:15.340Z,18016.00
2022-08-04T09:36:11.669Z,17792.00
2022-08-04T09:37:11.668Z,17568.00
2022-08-04T09:38:11.662Z,17632.00
2022-08-04T09:39:11.683Z,17440.00
2022-08-04T09:40:12.406Z,17152.00
2022-08-04T09:41:39.468Z,17280.00
2022-08-04T09:42:11.612Z,17344.00
2022-08-04T09:43:11.658Z,17216.00
2022-08-04T09:44:49.798Z,17120.00
2022-08-04T09:45:15.571Z,17024.00
2022-08-04T09:46:11.563Z,17056.00
2022-08-04T09:47:12.616Z,17088.00
2022-08-04T09:48:11.567Z,17120.00
2022-08-04T09:49:11.534Z,17312.00
2022-08-04T09:50:11.538Z,17280.00
2022-08-04T09:51:11.531Z,17408.00
2022-08-04T09:52:11.513Z,17440.00
2022-08-04T09:53:11.494Z,17568.00
2022-08-04T09:54:11.536Z,16768.00
2022-08-04T09:55:11.495Z,17664.00
2022-08-04T09:56:11.469Z,17504.00
2022-08-04T09:57:11.488Z,17632.00
2022-08-04T09:58:11.448Z,17344.00
2022-08-04T09:59:11.452Z,17088.00
2022-08-04T10:00:11.436Z,17120.00
2022-08-04T10:01:11.438Z,16704.00
2022-08-04T10:02:11.444Z,16576.00
2022-08-04T10:03:14.756Z,15676.00
2022-08-04T10:04:11.395Z,14088.00
2022-08-04T10:05:11.381Z,16032.00
2022-08-04T10:06:11.390Z,14852.00
2022-08-04T10:07:11.356Z,14088.00
2022-08-04T10:08:16.635Z,15056.00
2022-08-04T10:09:11.328Z,16352.00
2022-08-04T10:10:11.319Z,16928.00
2022-08-04T10:11:11.309Z,16672.00
2022-08-04T10:12:11.300Z,16672.00
2022-08-04T10:13:11.305Z,16608.00
2022-08-04T10:14:11.279Z,16480.00
2022-08-04T10:15:11.273Z,16544.00
2022-08-04T10:16:11.261Z,16512.00
2022-08-04T10:17:11.263Z,16512.00
2022-08-04T10:18:11.245Z,16256.00
2022-08-04T10:19:11.227Z,16256.00
2022-08-04T10:20:11.223Z,16128.00
2022-08-04T10:21:15.496Z,15968.00
2022-08-04T10:22:28.302Z,16000.00
2022-08-04T10:23:12.366Z,16128.00
2022-08-04T10:24:11.214Z,16256.00
2022-08-04T10:25:40.457Z,16224.00
2022-08-04T10:26:11.167Z,16224.00
2022-08-04T10:27:11.163Z,16256.00
2022-08-04T10:28:11.138Z,16224.00
2022-08-04T10:29:11.183Z,16224.00
2022-08-04T10:30:11.121Z,16288.00
2022-08-04T10:31:11.121Z,16160.00
2022-08-04T10:32:11.099Z,16160.00
2022-08-04T10:33:11.089Z,16160.00
2022-08-04T10:34:11.085Z,16160.00
2022-08-04T10:35:11.091Z,16096.00
2022-08-04T10:36:11.099Z,16096.00
2022-08-04T10:37:11.047Z,16064.00
2022-08-04T10:38:11.043Z,16032.00
2022-08-04T10:39:13.734Z,15968.00
2022-08-04T10:40:11.149Z,16032.00
2022-08-04T10:41:11.031Z,15832.00
2022-08-04T10:42:11.000Z,16128.00
2022-08-04T10:43:20.727Z,16032.00
2022-08-04T10:44:10.983Z,16096.00
2022-08-04T10:45:10.971Z,15244.00
2022-08-04T10:46:10.958Z,15200.00
2022-08-04T10:47:10.945Z,15584.00
2022-08-04T10:48:10.956Z,15632.00
2022-08-04T10:49:10.928Z,15556.00
2022-08-04T10:50:10.920Z,15544.00
2022-08-04T10:51:11.039Z,15564.00
2022-08-04T10:52:10.895Z,15560.00
2022-08-04T10:53:10.891Z,15548.00
2022-08-04T10:54:10.915Z,15476.00
2022-08-04T10:55:10.862Z,15460.00
2022-08-04T10:56:10.871Z,15492.00
2022-08-04T10:57:10.845Z,15500.00
2022-08-04T10:58:10.834Z,15660.00
2022-08-04T10:59:10.824Z,15680.00
2022-08-04T11:00:10.838Z,15672.00
2022-08-04T11:01:10.857Z,15644.00
2022-08-04T11:02:14.933Z,15640.00
2022-08-04T11:03:10.861Z,15724.00
2022-08-04T11:04:10.785Z,15748.00
2022-08-04T11:05:10.779Z,15824.00
2022-08-04T11:06:10.764Z,16064.00
2022-08-04T11:07:10.749Z,16320.00
2022-08-04T11:08:12.898Z,16256.00
2022-08-04T11:09:13.981Z,16384.00
2022-08-04T11:10:10.763Z,16384.00
2022-08-04T11:11:10.719Z,16512.00
2022-08-04T11:12:10.712Z,16512.00
2022-08-04T11:14:30.622Z,12284.00
2022-08-04T11:15:31.607Z,7124.00
2022-08-04T11:16:31.584Z,7512.00
2022-08-04T11:17:31.573Z,13112.00
2022-08-04T11:18:31.557Z,16352.00
2022-08-04T11:19:45.185Z,16768.00
2022-08-04T11:20:35.239Z,16736.00
2022-08-04T11:21:31.549Z,16992.00
2022-08-04T11:22:31.527Z,16832.00
2022-08-04T11:23:31.516Z,16960.00
2022-08-04T11:24:31.517Z,16864.00
2022-08-04T11:25:31.533Z,16864.00
2022-08-04T11:26:31.475Z,10340.00
2022-08-04T11:27:31.478Z,17344.00
2022-08-04T11:28:32.743Z,17600.00
2022-08-04T11:29:31.463Z,10692.00
2022-08-04T11:30:31.438Z,18336.00
2022-08-04T11:31:31.462Z,15776.00
2022-08-04T11:32:31.460Z,15472.00
2022-08-04T11:33:31.436Z,18560.00
2022-08-04T11:34:31.395Z,13748.00
2022-08-04T11:35:31.407Z,10332.00
2022-08-04T11:36:31.404Z,10944.00
2022-08-04T11:37:31.373Z,11388.00
2022-08-04T11:38:32.426Z,12640.00
2022-08-04T11:39:33.065Z,19648.00
2022-08-04T11:40:31.350Z,19360.00
2022-08-04T11:41:31.403Z,19072.00
2022-08-04T11:42:31.321Z,18752.00
2022-08-04T11:44:01.235Z,18368.00
2022-08-04T11:44:31.306Z,16832.00
2022-08-04T11:45:31.333Z,14524.00
2022-08-04T11:46:31.284Z,13984.00
2022-08-04T11:47:31.280Z,14256.00
2022-08-04T11:48:31.265Z,14412.00
2022-08-04T11:49:31.249Z,12832.00
2022-08-04T11:50:31.251Z,14328.00
2022-08-04T11:51:31.261Z,16340.00
2022-08-04T11:52:31.224Z,13980.00
2022-08-04T11:53:36.633Z,14176.00
2022-08-04T11:54:31.228Z,15444.00
2022-08-04T11:55:31.211Z,15548.00
2022-08-04T11:56:36.258Z,14856.00
2022-08-04T11:57:35.786Z,14520.00
2022-08-04T11:58:31.172Z,19136.00
2022-08-04T11:59:31.153Z,16576.00
2022-08-04T12:00:31.143Z,13280.00
2022-08-04T12:01:31.125Z,14276.00
2022-08-04T12:02:31.203Z,15436.00
2022-08-04T12:03:31.142Z,17664.00
2022-08-04T12:04:31.123Z,13788.00
2022-08-04T12:05:36.504Z,13024.00
2022-08-04T12:06:31.088Z,12716.00
2022-08-04T12:07:32.179Z,12868.00
2022-08-04T12:08:31.063Z,14420.00
2022-08-04T12:09:31.061Z,14404.00
2022-08-04T12:10:41.593Z,15740.00
2022-08-04T12:11:31.043Z,19296.00
2022-08-04T12:12:31.045Z,19776.00
2022-08-04T12:13:31.007Z,20256.00
2022-08-04T12:14:31.018Z,13144.00
2022-08-04T12:15:31.004Z,12920.00
2022-08-04T12:16:31.025Z,12780.00
2022-08-04T12:17:33.678Z,13120.00
2022-08-04T12:18:30.995Z,20128.00
2022-08-04T12:19:43.777Z,20512.00
2022-08-04T12:20:38.449Z,20544.00
2022-08-04T12:21:30.933Z,20032.00
2022-08-04T12:22:31.406Z,19424.00
2022-08-04T12:23:30.923Z,19488.00
2022-08-04T12:24:30.894Z,19328.00
2022-08-04T12:25:30.911Z,19328.00
2022-08-04T12:26:30.885Z,19488.00
2022-08-04T12:27:31.010Z,19584.00
2022-08-04T12:28:41.617Z,14472.00